createdAt,value
2023-05-14T00:00:58.162Z,99.99
2023-05-14T00:01:58.649Z,99.99
2023-05-14T00:03:00.777Z,99.99
2023-05-14T00:03:59.536Z,99.99
2023-05-14T00:04:59.889Z,99.91
2023-05-14T00:06:00.321Z,99.99
2023-05-14T00:07:00.752Z,99.99
2023-05-14T00:08:01.174Z,99.62
2023-05-14T00:09:01.614Z,99.99
2023-05-14T00:10:02.043Z,99.99
2023-05-14T00:11:02.464Z,99.99
2023-05-14T00:12:02.903Z,99.99
2023-05-14T00:13:03.327Z,99.99
2023-05-14T00:14:03.787Z,99.99
2023-05-14T00:15:04.190Z,99.99
2023-05-14T00:16:04.658Z,99.99
2023-05-14T00:17:05.053Z,99.99
2023-05-14T00:18:05.526Z,99.99
2023-05-14T00:19:05.942Z,99.99
2023-05-14T00:20:06.339Z,99.99
2023-05-14T00:21:06.770Z,99.72
2023-05-14T00:22:07.201Z,99.99
2023-05-14T00:23:07.632Z,99.99
2023-05-14T00:24:08.060Z,99.72
2023-05-14T00:25:08.492Z,99.99
2023-05-14T00:26:08.930Z,99.81
2023-05-14T00:27:09.353Z,99.99
2023-05-14T00:28:09.779Z,99.99
2023-05-14T00:29:10.210Z,99.99
2023-05-14T00:30:10.703Z,99.62
2023-05-14T00:31:11.115Z,99.99
2023-05-14T00:32:11.501Z,99.99
2023-05-14T00:33:11.933Z,99.99
2023-05-14T00:34:12.365Z,99.99
2023-05-14T00:35:12.793Z,99.99
2023-05-14T00:36:13.283Z,99.99
2023-05-14T00:37:13.653Z,99.99
2023-05-14T00:38:14.080Z,99.91
2023-05-14T00:39:14.509Z,99.91
2023-05-14T00:40:16.697Z,99.99
2023-05-14T00:41:15.373Z,99.99
2023-05-14T00:42:15.800Z,99.99
2023-05-14T00:43:16.246Z,99.99
2023-05-14T00:44:16.658Z,99.99
2023-05-14T00:45:17.093Z,99.99
2023-05-14T00:46:17.527Z,99.99
2023-05-14T00:47:17.956Z,99.99
2023-05-14T00:48:18.384Z,99.99
2023-05-14T00:49:18.813Z,99.96
2023-05-14T00:50:19.247Z,99.99
2023-05-14T00:51:19.674Z,99.96
2023-05-14T00:52:20.102Z,99.67
2023-05-14T00:53:20.535Z,99.96
2023-05-14T00:54:20.983Z,99.87
2023-05-14T00:55:21.393Z,99.99
2023-05-14T00:56:21.825Z,99.99
2023-05-14T00:57:22.251Z,99.96
2023-05-14T00:58:22.686Z,99.38
2023-05-14T00:59:23.119Z,99.62
2023-05-14T01:00:23.835Z,99.62
2023-05-14T01:01:24.003Z,99.99
2023-05-14T01:02:24.487Z,99.81
2023-05-14T01:03:24.873Z,99.99
2023-05-14T01:04:25.269Z,99.43
2023-05-14T01:05:25.700Z,99.52
2023-05-14T01:06:26.122Z,99.99
2023-05-14T01:07:26.565Z,99.24
2023-05-14T01:08:26.984Z,99.15
2023-05-14T01:09:27.419Z,99.33
2023-05-14T01:10:27.842Z,99.43
2023-05-14T01:11:28.303Z,99.24
2023-05-14T01:12:28.721Z,99.33
2023-05-14T01:13:29.134Z,99.15
2023-05-14T01:14:29.566Z,99.15
2023-05-14T01:15:29.998Z,99.24
2023-05-14T01:16:30.479Z,98.95
2023-05-14T01:17:30.878Z,99.33
2023-05-14T01:18:31.344Z,99.62
2023-05-14T01:19:31.715Z,99.43
2023-05-14T01:20:33.739Z,99.52
2023-05-14T01:21:32.589Z,99.33
2023-05-14T01:22:33.006Z,99.33
2023-05-14T01:23:33.440Z,99.24
2023-05-14T01:24:33.865Z,99.05
2023-05-14T01:25:35.267Z,99.33
2023-05-14T01:26:34.735Z,99.52
2023-05-14T01:27:35.154Z,98.76
2023-05-14T01:28:35.584Z,99.81
2023-05-14T01:29:36.011Z,99.43
2023-05-14T01:30:36.449Z,99.72
2023-05-14T01:31:36.950Z,99.43
2023-05-14T01:32:37.372Z,99.24
2023-05-14T01:33:37.753Z,99.05
2023-05-14T01:34:38.164Z,98.47
2023-05-14T01:35:38.597Z,98.57
2023-05-14T01:36:39.035Z,98.76
2023-05-14T01:37:39.466Z,98.57
2023-05-14T01:38:39.883Z,98.57
2023-05-14T01:39:40.322Z,98.76
2023-05-14T01:40:40.740Z,98.66
2023-05-14T01:41:41.173Z,98.76
2023-05-14T01:42:41.600Z,99.43
2023-05-14T01:43:42.040Z,99.15
2023-05-14T01:44:42.515Z,99.52
2023-05-14T01:45:42.894Z,99.33
2023-05-14T01:46:43.332Z,99.33
2023-05-14T01:47:43.790Z,99.33
2023-05-14T01:48:44.193Z,99.05
2023-05-14T01:49:44.611Z,99.24
2023-05-14T01:50:45.036Z,98.76
2023-05-14T01:51:45.467Z,99.43
2023-05-14T01:52:45.899Z,98.28
2023-05-14T01:53:46.326Z,98.57
2023-05-14T01:54:46.794Z,98.47
2023-05-14T01:55:47.191Z,98.76
2023-05-14T01:56:47.623Z,98.19
2023-05-14T01:57:48.051Z,98.19
2023-05-14T01:58:48.483Z,97.33
2023-05-14T01:59:48.943Z,97.42
2023-05-14T02:00:49.361Z,97.52
2023-05-14T02:01:49.791Z,97.71
2023-05-14T02:02:50.228Z,97.13
2023-05-14T02:03:50.715Z,97.33
2023-05-14T02:04:51.058Z,97.04
2023-05-14T02:05:51.496Z,96.75
2023-05-14T02:06:51.923Z,96.18
2023-05-14T02:07:52.352Z,95.89
2023-05-14T02:08:52.790Z,95.03
2023-05-14T02:09:53.213Z,94.74
2023-05-14T02:10:53.644Z,94.74
2023-05-14T02:11:54.070Z,94.55
2023-05-14T02:12:54.494Z,93.88
2023-05-14T02:13:54.932Z,94.74
2023-05-14T02:14:55.358Z,93.88
2023-05-14T02:15:55.856Z,93.50
2023-05-14T02:16:56.219Z,92.83
2023-05-14T02:17:56.680Z,92.92
2023-05-14T02:18:57.094Z,93.88
2023-05-14T02:19:57.517Z,93.21
2023-05-14T02:20:57.937Z,92.83
2023-05-14T02:21:58.370Z,92.87
2023-05-14T02:22:58.833Z,92.73
2023-05-14T02:23:59.236Z,92.16
2023-05-14T02:24:59.662Z,92.16
2023-05-14T02:26:00.105Z,92.54
2023-05-14T02:27:00.528Z,92.63
2023-05-14T02:28:00.950Z,92.25
2023-05-14T02:29:01.382Z,92.35
2023-05-14T02:30:01.854Z,92.44
2023-05-14T02:31:02.313Z,91.15
2023-05-14T02:32:02.669Z,89.81
2023-05-14T02:33:03.227Z,89.90
2023-05-14T02:34:03.536Z,90.09
2023-05-14T02:35:03.963Z,90.19
2023-05-14T02:36:04.391Z,89.62
2023-05-14T02:37:04.822Z,89.23
2023-05-14T02:38:05.280Z,89.43
2023-05-14T02:39:05.687Z,88.95
2023-05-14T02:40:06.125Z,88.28
2023-05-14T02:41:06.543Z,88.66
2023-05-14T02:42:06.984Z,88.66
2023-05-14T02:43:07.399Z,88.18
2023-05-14T02:44:07.836Z,87.70
2023-05-14T02:45:08.311Z,87.41
2023-05-14T02:46:08.685Z,87.90
2023-05-14T02:47:09.208Z,87.13
2023-05-14T02:48:09.610Z,87.32
2023-05-14T02:49:09.997Z,87.13
2023-05-14T02:50:10.422Z,86.74
2023-05-14T02:51:10.848Z,87.41
2023-05-14T02:52:11.277Z,87.51
2023-05-14T02:53:11.706Z,86.46
2023-05-14T02:54:12.141Z,85.88
2023-05-14T02:55:12.568Z,85.79
2023-05-14T02:56:12.994Z,85.79
2023-05-14T02:57:13.427Z,86.08
2023-05-14T02:58:13.859Z,85.69
2023-05-14T02:59:14.289Z,85.50
2023-05-14T03:00:14.714Z,84.92
2023-05-14T03:01:15.256Z,84.26
2023-05-14T03:02:15.640Z,84.64
2023-05-14T03:03:16.030Z,84.35
2023-05-14T03:04:16.438Z,84.26
2023-05-14T03:05:16.914Z,83.68
2023-05-14T03:06:17.304Z,83.39
2023-05-14T03:07:17.730Z,84.45
2023-05-14T03:08:18.174Z,83.68
2023-05-14T03:09:18.586Z,82.76
2023-05-14T03:10:19.016Z,82.15
2023-05-14T03:11:19.452Z,82.43
2023-05-14T03:12:19.875Z,82.19
2023-05-14T03:13:20.353Z,82.00
2023-05-14T03:14:20.741Z,81.52
2023-05-14T03:15:21.188Z,81.77
2023-05-14T03:16:21.628Z,81.62
2023-05-14T03:17:22.133Z,81.62
2023-05-14T03:18:22.457Z,81.52
2023-05-14T03:19:22.891Z,81.43
2023-05-14T03:20:23.514Z,81.62
2023-05-14T03:21:23.759Z,80.85
2023-05-14T03:22:24.182Z,81.62
2023-05-14T03:23:24.608Z,81.13
2023-05-14T03:24:25.040Z,81.43
2023-05-14T03:25:25.479Z,81.13
2023-05-14T03:26:25.956Z,80.47
2023-05-14T03:27:26.329Z,80.85
2023-05-14T03:28:26.763Z,80.66
2023-05-14T03:29:27.198Z,81.13
2023-05-14T03:30:27.668Z,80.56
2023-05-14T03:31:28.118Z,80.18
2023-05-14T03:32:28.520Z,80.47
2023-05-14T03:33:28.906Z,80.85
2023-05-14T03:34:29.342Z,81.04
2023-05-14T03:35:29.775Z,80.66
2023-05-14T03:36:30.204Z,80.37
2023-05-14T03:37:30.631Z,80.66
2023-05-14T03:38:31.062Z,80.37
2023-05-14T03:39:31.492Z,79.99
2023-05-14T03:40:31.918Z,79.89
2023-05-14T03:41:32.361Z,79.41
2023-05-14T03:42:32.784Z,79.32
2023-05-14T03:43:33.211Z,79.22
2023-05-14T03:44:33.683Z,80.47
2023-05-14T03:45:34.107Z,79.85
2023-05-14T03:46:34.506Z,79.60
2023-05-14T03:47:34.961Z,81.00
2023-05-14T03:48:35.398Z,79.99
2023-05-14T03:49:35.795Z,79.80
2023-05-14T03:50:36.222Z,79.80
2023-05-14T03:51:36.653Z,80.08
2023-05-14T03:52:37.121Z,79.22
2023-05-14T03:53:37.519Z,79.51
2023-05-14T03:54:37.945Z,79.22
2023-05-14T03:55:38.374Z,78.93
2023-05-14T03:56:38.825Z,79.13
2023-05-14T03:57:39.234Z,79.51
2023-05-14T03:58:39.680Z,79.03
2023-05-14T03:59:40.096Z,78.74
2023-05-14T04:00:40.527Z,78.36
2023-05-14T04:01:40.958Z,78.84
2023-05-14T04:02:41.491Z,78.36
2023-05-14T04:03:42.144Z,79.03
2023-05-14T04:04:42.338Z,78.64
2023-05-14T04:05:42.687Z,77.97
2023-05-14T04:06:43.105Z,78.64
2023-05-14T04:07:43.549Z,78.36
2023-05-14T04:08:43.966Z,78.07
2023-05-14T04:09:44.399Z,78.17
2023-05-14T04:10:44.832Z,78.17
2023-05-14T04:11:45.262Z,77.78
2023-05-14T04:12:45.692Z,77.78
2023-05-14T04:13:46.123Z,77.11
2023-05-14T04:14:46.547Z,77.59
2023-05-14T04:15:46.986Z,77.21
2023-05-14T04:16:47.441Z,77.21
2023-05-14T04:17:47.899Z,77.02
2023-05-14T04:18:48.314Z,77.11
2023-05-14T04:19:48.705Z,76.82
2023-05-14T04:20:49.169Z,77.69
2023-05-14T04:21:49.573Z,77.50
2023-05-14T04:22:49.996Z,77.78
2023-05-14T04:23:50.424Z,77.59
2023-05-14T04:24:50.854Z,77.31
2023-05-14T04:25:51.285Z,77.11
2023-05-14T04:26:51.714Z,77.02
2023-05-14T04:27:52.153Z,76.82
2023-05-14T04:28:52.581Z,77.40
2023-05-14T04:29:53.005Z,77.59
2023-05-14T04:30:53.462Z,77.21
2023-05-14T04:31:53.935Z,77.50
2023-05-14T04:32:54.353Z,77.78
2023-05-14T04:33:54.735Z,78.84
2023-05-14T04:34:55.160Z,79.41
2023-05-14T04:35:55.590Z,77.78
2023-05-14T04:36:56.049Z,78.93
2023-05-14T04:37:56.458Z,79.03
2023-05-14T04:38:56.884Z,78.74
2023-05-14T04:39:57.328Z,78.93
2023-05-14T04:40:57.738Z,79.03
2023-05-14T04:41:58.169Z,78.84
2023-05-14T04:42:58.597Z,78.99
2023-05-14T04:43:59.059Z,79.57
2023-05-14T04:44:59.460Z,80.81
2023-05-14T04:45:59.960Z,80.52
2023-05-14T04:47:00.319Z,80.81
2023-05-14T04:48:00.810Z,81.10
2023-05-14T04:49:15.779Z,81.52
2023-05-14T04:50:01.615Z,81.38
2023-05-14T04:51:02.060Z,81.00
2023-05-14T04:52:03.280Z,80.52
2023-05-14T04:53:02.907Z,80.62
2023-05-14T04:54:03.368Z,80.94
2023-05-14T04:55:03.764Z,81.13
2023-05-14T04:56:04.201Z,80.85
2023-05-14T04:57:04.627Z,80.66
2023-05-14T04:58:05.054Z,80.18
2023-05-14T04:59:05.488Z,79.60
2023-05-14T05:00:05.916Z,79.80
2023-05-14T05:01:06.368Z,79.51
2023-05-14T05:02:06.777Z,79.60
2023-05-14T05:03:07.342Z,78.93
2023-05-14T05:04:07.767Z,79.22
2023-05-14T05:05:08.073Z,79.32
2023-05-14T05:06:08.509Z,78.74
2023-05-14T05:07:08.933Z,78.74
2023-05-14T05:08:09.373Z,79.13
2023-05-14T05:09:09.799Z,79.41
2023-05-14T05:10:10.226Z,79.03
2023-05-14T05:11:10.664Z,79.70
2023-05-14T05:12:11.094Z,79.22
2023-05-14T05:13:11.517Z,78.74
2023-05-14T05:14:11.958Z,79.22
2023-05-14T05:15:12.402Z,77.97
2023-05-14T05:16:12.851Z,77.78
2023-05-14T05:17:13.368Z,76.92
2023-05-14T05:18:13.684Z,76.35
2023-05-14T05:19:14.155Z,76.25
2023-05-14T05:20:14.542Z,76.06
2023-05-14T05:21:14.969Z,75.04
2023-05-14T05:22:15.396Z,74.52
2023-05-14T05:23:15.838Z,75.43
2023-05-14T05:24:16.258Z,75.43
2023-05-14T05:25:16.695Z,74.85
2023-05-14T05:26:17.120Z,74.76
2023-05-14T05:27:17.553Z,74.27
2023-05-14T05:28:24.812Z,74.51
2023-05-14T05:29:18.415Z,74.22
2023-05-14T05:30:18.868Z,73.74
2023-05-14T05:31:19.969Z,72.39
2023-05-14T05:32:19.712Z,71.92
2023-05-14T05:33:20.148Z,71.53
2023-05-14T05:34:20.594Z,71.92
2023-05-14T05:35:21.003Z,71.34
2023-05-14T05:36:21.438Z,70.96
2023-05-14T05:37:26.844Z,70.67
2023-05-14T05:38:22.318Z,70.67
2023-05-14T05:39:22.721Z,70.90
2023-05-14T05:40:25.032Z,70.23
2023-05-14T05:41:23.590Z,69.46
2023-05-14T05:42:24.020Z,69.74
2023-05-14T05:43:24.456Z,69.46
2023-05-14T05:44:24.885Z,69.36
2023-05-14T05:45:36.386Z,69.36
2023-05-14T05:46:25.768Z,68.59
2023-05-14T05:47:26.269Z,68.98
2023-05-14T05:48:26.644Z,68.69
2023-05-14T05:49:27.040Z,68.69
2023-05-14T05:50:27.473Z,68.88
2023-05-14T05:51:27.908Z,68.40
2023-05-14T05:52:28.361Z,68.40
2023-05-14T05:53:28.785Z,68.79
2023-05-14T05:54:29.825Z,69.26
2023-05-14T05:55:29.634Z,69.01
2023-05-14T05:56:30.066Z,69.11
2023-05-14T05:57:30.506Z,68.15
2023-05-14T05:58:30.951Z,67.00
2023-05-14T05:59:31.370Z,67.47
2023-05-14T06:00:31.797Z,67.09
2023-05-14T06:01:32.289Z,66.52
2023-05-14T06:02:32.802Z,67.09
2023-05-14T06:03:33.104Z,67.09
2023-05-14T06:04:33.549Z,66.80
2023-05-14T06:05:33.981Z,67.03
2023-05-14T06:06:34.457Z,66.52
2023-05-14T06:07:34.833Z,66.71
2023-05-14T06:08:35.846Z,66.93
2023-05-14T06:09:35.699Z,67.41
2023-05-14T06:10:36.148Z,66.55
2023-05-14T06:11:36.561Z,66.16
2023-05-14T06:12:37.009Z,66.07
2023-05-14T06:13:37.444Z,66.55
2023-05-14T06:14:37.867Z,65.30
2023-05-14T06:15:38.301Z,65.69
2023-05-14T06:16:38.799Z,65.59
2023-05-14T06:17:39.205Z,65.53
2023-05-14T06:18:39.634Z,65.81
2023-05-14T06:19:40.034Z,66.00
2023-05-14T06:20:40.469Z,65.14
2023-05-14T06:21:40.906Z,64.85
2023-05-14T06:22:41.342Z,65.14
2023-05-14T06:23:41.771Z,64.47
2023-05-14T06:24:42.203Z,65.05
2023-05-14T06:25:42.653Z,65.59
2023-05-14T06:26:43.071Z,65.62
2023-05-14T06:27:43.525Z,64.76
2023-05-14T06:28:43.941Z,64.92
2023-05-14T06:29:44.377Z,65.78
2023-05-14T06:30:44.807Z,66.55
2023-05-14T06:31:45.262Z,66.58
2023-05-14T06:32:45.750Z,65.14
2023-05-14T06:33:46.116Z,64.18
2023-05-14T06:34:46.553Z,64.37
2023-05-14T06:35:46.978Z,64.76
2023-05-14T06:36:47.416Z,66.49
2023-05-14T06:37:47.862Z,65.81
2023-05-14T06:38:48.281Z,65.23
2023-05-14T06:39:48.713Z,65.43
2023-05-14T06:40:49.194Z,65.62
2023-05-14T06:41:49.587Z,66.00
2023-05-14T06:43:50.492Z,64.18
2023-05-14T06:44:52.635Z,64.22
2023-05-14T06:45:51.396Z,64.37
2023-05-14T06:46:51.799Z,65.17
2023-05-14T06:47:52.326Z,65.14
2023-05-14T06:48:52.748Z,64.56
2023-05-14T06:50:14.301Z,64.95
2023-05-14T06:50:53.525Z,65.27
2023-05-14T06:51:53.963Z,64.76
2023-05-14T06:52:54.411Z,64.76
2023-05-14T06:53:54.851Z,65.05
2023-05-14T06:54:55.342Z,65.62
2023-05-14T06:56:16.863Z,65.91
2023-05-14T06:56:56.144Z,65.91
2023-05-14T06:57:56.581Z,65.81
2023-05-14T06:58:57.029Z,65.91
2023-05-14T06:59:57.491Z,66.39
2023-05-14T07:00:57.912Z,65.81
2023-05-14T07:02:19.506Z,66.58
2023-05-14T07:02:58.814Z,67.25
2023-05-14T07:03:59.214Z,67.07
2023-05-14T07:04:59.619Z,66.39
2023-05-14T07:06:00.063Z,66.10
2023-05-14T07:07:00.499Z,66.10
2023-05-14T07:08:22.077Z,65.56
2023-05-14T07:09:01.348Z,65.66
2023-05-14T07:10:01.803Z,65.91
2023-05-14T07:11:02.224Z,66.30
2023-05-14T07:12:02.699Z,65.43
2023-05-14T07:13:03.082Z,65.81
2023-05-14T07:14:24.712Z,66.00
2023-05-14T07:15:03.962Z,66.14
2023-05-14T07:16:04.417Z,65.94
2023-05-14T07:17:04.841Z,65.20
2023-05-14T07:18:05.442Z,64.98
2023-05-14T07:19:05.726Z,64.12
2023-05-14T07:20:27.440Z,64.34
2023-05-14T07:21:06.600Z,63.86
2023-05-14T07:22:06.995Z,63.89
2023-05-14T07:23:07.465Z,63.02
2023-05-14T07:24:07.876Z,61.97
2023-05-14T07:25:08.999Z,61.49
2023-05-14T07:26:29.902Z,62.83
2023-05-14T07:36:05.200Z,58.11
2023-05-14T07:37:51.970Z,58.40
2023-05-14T07:38:51.713Z,59.20
2023-05-14T07:42:43.654Z,56.40
2023-05-14T07:43:19.947Z,56.88
2023-05-14T07:45:14.521Z,56.52
2023-05-14T07:47:31.155Z,55.54
2023-05-14T07:48:30.972Z,56.09
2023-05-14T07:55:37.477Z,54.88
2023-05-14T07:56:06.958Z,54.79
2023-05-14T07:57:06.614Z,55.36
2023-05-14T08:00:02.381Z,54.24
2023-05-14T08:00:40.679Z,52.67
2023-05-14T08:03:10.135Z,54.40
2023-05-14T08:03:35.943Z,54.11
2023-05-14T08:07:04.523Z,53.51
2023-05-14T08:21:57.634Z,48.54
2023-05-14T08:22:46.901Z,47.96
2023-05-14T08:26:14.638Z,48.27
2023-05-14T08:27:15.810Z,49.51
2023-05-14T08:29:11.009Z,49.22
2023-05-14T08:30:10.145Z,49.51
2023-05-14T08:32:12.159Z,48.90
2023-05-14T08:33:05.267Z,49.29
2023-05-14T08:34:59.875Z,49.63
2023-05-14T08:36:00.312Z,48.95
2023-05-14T08:38:00.179Z,47.91
2023-05-14T08:38:55.386Z,47.64
2023-05-14T08:40:50.312Z,46.36
2023-05-14T08:41:50.656Z,47.64
2023-05-14T08:43:46.289Z,45.95
2023-05-14T08:44:46.740Z,44.98
2023-05-14T08:45:47.179Z,44.98
2023-05-14T08:46:47.629Z,45.44
2023-05-14T08:47:48.112Z,45.81
2023-05-14T08:48:48.591Z,46.02
2023-05-14T08:49:48.974Z,46.41
2023-05-14T08:50:49.418Z,45.37
2023-05-14T08:51:49.863Z,45.27
2023-05-14T08:52:50.327Z,45.15
2023-05-14T08:53:50.764Z,44.86
2023-05-14T08:54:51.225Z,45.05
2023-05-14T08:55:58.534Z,45.03
2023-05-14T08:56:52.140Z,45.61
2023-05-14T08:57:52.556Z,44.76
2023-05-14T08:58:53.001Z,44.68
2023-05-14T08:59:53.447Z,44.68
2023-05-14T09:00:53.940Z,43.84
2023-05-14T09:01:54.400Z,43.10
2023-05-14T09:02:54.824Z,42.25
2023-05-14T09:03:56.371Z,42.13
2023-05-14T09:04:55.683Z,41.69
2023-05-14T09:05:57.945Z,40.81
2023-05-14T09:06:56.604Z,40.64
2023-05-14T09:07:57.071Z,41.16
2023-05-14T09:08:57.540Z,40.46
2023-05-14T09:10:00.663Z,40.95
2023-05-14T09:10:58.397Z,40.66
2023-05-14T09:11:58.895Z,41.26
2023-05-14T09:12:59.318Z,39.45
2023-05-14T09:13:59.798Z,38.91
2023-05-14T09:15:00.226Z,38.73
2023-05-14T09:16:02.488Z,37.91
2023-05-14T09:17:01.116Z,36.76
2023-05-14T09:18:01.606Z,35.90
2023-05-14T09:19:02.077Z,34.71
2023-05-14T09:20:02.482Z,35.75
2023-05-14T09:21:02.976Z,35.22
2023-05-14T09:22:03.398Z,35.67
2023-05-14T09:23:03.852Z,34.36
2023-05-14T09:24:04.419Z,34.78
2023-05-14T09:25:04.771Z,33.75
2023-05-14T09:26:05.231Z,31.24
2023-05-14T09:27:05.703Z,30.98
2023-05-14T09:29:39.362Z,30.86
2023-05-14T09:30:42.728Z,32.84
2023-05-14T09:32:35.864Z,32.58
2023-05-14T09:34:49.380Z,30.07
2023-05-14T09:35:50.069Z,29.68
2023-05-14T09:37:44.489Z,29.43
2023-05-14T09:44:41.816Z,28.81
2023-05-14T09:45:42.305Z,30.57
2023-05-14T09:47:37.109Z,28.89
2023-05-14T09:48:37.477Z,30.44
2023-05-14T09:50:33.080Z,31.25
2023-05-14T09:51:33.541Z,30.86
2023-05-14T09:53:29.189Z,29.46
2023-05-14T09:54:29.652Z,29.36
2023-05-14T09:56:24.346Z,28.85
2023-05-14T09:57:24.792Z,29.04
2023-05-14T09:58:25.255Z,29.66
2023-05-14T09:59:25.718Z,29.16
2023-05-14T10:00:26.372Z,29.52
2023-05-14T10:01:26.675Z,29.70
2023-05-14T10:02:27.142Z,30.79
2023-05-14T10:03:30.516Z,30.12
2023-05-14T10:04:28.154Z,29.63
2023-05-14T10:05:28.506Z,29.63
2023-05-14T10:06:29.560Z,29.88
2023-05-14T10:07:39.860Z,30.97
2023-05-14T10:08:31.074Z,30.79
2023-05-14T10:09:33.934Z,28.45
2023-05-14T10:10:31.528Z,28.99
2023-05-14T10:11:31.279Z,29.39
2023-05-14T10:12:36.294Z,29.21
2023-05-14T10:13:33.032Z,29.63
2023-05-14T10:14:33.651Z,28.47
2023-05-14T10:15:33.138Z,28.38
2023-05-14T10:16:33.671Z,28.78
2023-05-14T10:17:34.087Z,30.28
2023-05-14T10:18:49.194Z,32.29
2023-05-14T10:24:15.902Z,31.51
2023-05-14T10:30:00.150Z,28.69
2023-05-14T10:30:38.189Z,30.21
2023-05-14T10:34:27.179Z,31.64
2023-05-14T10:35:06.468Z,32.57
2023-05-14T10:37:01.465Z,33.70
2023-05-14T10:38:01.594Z,34.16
2023-05-14T10:39:56.248Z,35.67
2023-05-14T10:40:56.808Z,35.94
2023-05-14T10:41:57.575Z,37.09
2023-05-14T10:42:59.520Z,37.65
2023-05-14T10:43:58.058Z,37.92
2023-05-14T10:44:58.561Z,38.21
2023-05-14T10:45:59.645Z,38.97
2023-05-14T10:46:59.435Z,39.16
2023-05-14T10:47:59.869Z,39.36
2023-05-14T10:49:00.450Z,39.55
2023-05-14T10:50:03.165Z,40.30
2023-05-14T10:51:01.274Z,40.30
2023-05-14T10:52:01.658Z,40.67
2023-05-14T10:53:03.180Z,40.86
2023-05-14T10:54:02.539Z,41.81
2023-05-14T10:55:03.861Z,42.00
2023-05-14T10:56:03.487Z,42.66
2023-05-14T10:57:03.871Z,43.16
2023-05-14T10:58:04.312Z,42.75
2023-05-14T10:59:04.756Z,43.04
